sensor_id;sensor_type;location;lat;lon;timestamp;temperature;humidity
3528;DHT22;1778;47.966;7.854;2023-02-17T00:00:38;12.70;96.40
3528;DHT22;1778;47.966;7.854;2023-02-17T00:01:39;12.70;96.50
3528;DHT22;1778;47.966;7.854;2023-02-17T00:02:41;12.60;96.40
3528;DHT22;1778;47.966;7.854;2023-02-17T00:03:42;12.60;96.70
3528;DHT22;1778;47.966;7.854;2023-02-17T00:04:48;12.70;96.60
3528;DHT22;1778;47.966;7.854;2023-02-17T00:05:50;12.70;96.60
3528;DHT22;1778;47.966;7.854;2023-02-17T00:06:51;12.60;96.80
3528;DHT22;1778;47.966;7.854;2023-02-17T00:07:53;12.60;96.70
3528;DHT22;1778;47.966;7.854;2023-02-17T00:08:55;12.70;96.70
3528;DHT22;1778;47.966;7.854;2023-02-17T00:09:59;12.70;96.50
3528;DHT22;1778;47.966;7.854;2023-02-17T00:11:01;12.70;96.70
3528;DHT22;1778;47.966;7.854;2023-02-17T00:12:02;12.70;96.60
3528;DHT22;1778;47.966;7.854;2023-02-17T00:13:04;12.60;96.80
3528;DHT22;1778;47.966;7.854;2023-02-17T00:14:06;12.70;97.00
3528;DHT22;1778;47.966;7.854;2023-02-17T00:15:08;12.70;97.00
3528;DHT22;1778;47.966;7.854;2023-02-17T00:16:14;12.70;97.10
3528;DHT22;1778;47.966;7.854;2023-02-17T00:17:16;12.70;97.20
3528;DHT22;1778;47.966;7.854;2023-02-17T00:18:18;12.60;97.40
3528;DHT22;1778;47.966;7.854;2023-02-17T00:19:19;12.60;97.50
3528;DHT22;1778;47.966;7.854;2023-02-17T00:20:28;12.60;97.80
3528;DHT22;1778;47.966;7.854;2023-02-17T00:21:30;12.60;97.70
3528;DHT22;1778;47.966;7.854;2023-02-17T00:22:32;12.60;97.90
3528;DHT22;1778;47.966;7.854;2023-02-17T00:23:33;12.70;98.10
3528;DHT22;1778;47.966;7.854;2023-02-17T00:24:37;12.70;98.40
3528;DHT22;1778;47.966;7.854;2023-02-17T00:25:39;12.70;98.70
3528;DHT22;1778;47.966;7.854;2023-02-17T00:26:41;12.60;98.80
3528;DHT22;1778;47.966;7.854;2023-02-17T00:27:42;12.60;99.30
3528;DHT22;1778;47.966;7.854;2023-02-17T00:28:44;12.60;99.80
3528;DHT22;1778;47.966;7.854;2023-02-17T00:29:46;12.60;99.90
3528;DHT22;1778;47.966;7.854;2023-02-17T00:30:47;12.60;99.90
3528;DHT22;1778;47.966;7.854;2023-02-17T00:31:51;12.70;99.90
3528;DHT22;1778;47.966;7.854;2023-02-17T00:32:53;12.60;99.90
3528;DHT22;1778;47.966;7.854;2023-02-17T00:33:55;12.60;99.90
3528;DHT22;1778;47.966;7.854;2023-02-17T00:34:56;12.60;99.90
3528;DHT22;1778;47.966;7.854;2023-02-17T00:36:01;12.60;99.90
3528;DHT22;1778;47.966;7.854;2023-02-17T00:37:04;12.60;99.90
3528;DHT22;1778;47.966;7.854;2023-02-17T00:38:06;12.60;99.90
3528;DHT22;1778;47.966;7.854;2023-02-17T00:39:07;12.60;99.90
3528;DHT22;1778;47.966;7.854;2023-02-17T00:40:10;12.50;99.90
3528;DHT22;1778;47.966;7.854;2023-02-17T00:41:12;12.50;99.90
3528;DHT22;1778;47.966;7.854;2023-02-17T00:42:14;12.50;99.90
3528;DHT22;1778;47.966;7.854;2023-02-17T00:43:15;12.60;99.90
3528;DHT22;1778;47.966;7.854;2023-02-17T00:44:22;12.60;99.90
3528;DHT22;1778;47.966;7.854;2023-02-17T00:45:25;12.60;99.90
3528;DHT22;1778;47.966;7.854;2023-02-17T00:46:28;12.60;99.90
3528;DHT22;1778;47.966;7.854;2023-02-17T00:47:29;12.60;99.90
3528;DHT22;1778;47.966;7.854;2023-02-17T00:48:31;12.60;99.90
3528;DHT22;1778;47.966;7.854;2023-02-17T00:49:33;12.60;99.90
3528;DHT22;1778;47.966;7.854;2023-02-17T00:50:35;12.60;99.90
3528;DHT22;1778;47.966;7.854;2023-02-17T00:51:38;12.60;99.90
3528;DHT22;1778;47.966;7.854;2023-02-17T00:52:39;12.60;99.90
3528;DHT22;1778;47.966;7.854;2023-02-17T00:53:41;12.60;99.90
3528;DHT22;1778;47.966;7.854;2023-02-17T00:54:42;12.60;99.90
3528;DHT22;1778;47.966;7.854;2023-02-17T00:55:44;12.50;99.90
3528;DHT22;1778;47.966;7.854;2023-02-17T00:56:45;12.60;99.90
3528;DHT22;1778;47.966;7.854;2023-02-17T00:57:47;12.60;99.90
3528;DHT22;1778;47.966;7.854;2023-02-17T00:58:48;12.60;99.90
3528;DHT22;1778;47.966;7.854;2023-02-17T00:59:50;12.60;99.90
3528;DHT22;1778;47.966;7.854;2023-02-17T01:00:54;12.60;99.90
3528;DHT22;1778;47.966;7.854;2023-02-17T01:01:56;12.60;99.90
3528;DHT22;1778;47.966;7.854;2023-02-17T01:02:57;12.60;99.90
3528;DHT22;1778;47.966;7.854;2023-02-17T01:03:59;12.60;99.90
3528;DHT22;1778;47.966;7.854;2023-02-17T01:05:01;12.60;99.90
3528;DHT22;1778;47.966;7.854;2023-02-17T01:06:08;12.60;99.90
3528;DHT22;1778;47.966;7.854;2023-02-17T01:07:10;12.60;99.90
3528;DHT22;1778;47.966;7.854;2023-02-17T01:08:14;12.50;99.90
3528;DHT22;1778;47.966;7.854;2023-02-17T01:09:15;12.60;99.90
3528;DHT22;1778;47.966;7.854;2023-02-17T01:10:17;12.60;99.90
3528;DHT22;1778;47.966;7.854;2023-02-17T01:11:24;12.50;99.90
3528;DHT22;1778;47.966;7.854;2023-02-17T01:12:26;12.60;99.90
3528;DHT22;1778;47.966;7.854;2023-02-17T01:13:27;12.60;99.90
3528;DHT22;1778;47.966;7.854;2023-02-17T01:14:29;12.50;99.90
3528;DHT22;1778;47.966;7.854;2023-02-17T01:15:31;12.50;99.90
3528;DHT22;1778;47.966;7.854;2023-02-17T01:16:36;12.50;99.90
3528;DHT22;1778;47.966;7.854;2023-02-17T01:17:38;12.60;99.90
3528;DHT22;1778;47.966;7.854;2023-02-17T01:18:39;12.60;99.90
3528;DHT22;1778;47.966;7.854;2023-02-17T01:19:41;12.70;99.90
3528;DHT22;1778;47.966;7.854;2023-02-17T01:20:42;12.60;99.90
3528;DHT22;1778;47.966;7.854;2023-02-17T01:21:44;12.60;99.90
3528;DHT22;1778;47.966;7.854;2023-02-17T01:22:46;12.60;99.90
3528;DHT22;1778;47.966;7.854;2023-02-17T01:23:52;12.50;99.90
3528;DHT22;1778;47.966;7.854;2023-02-17T01:24:54;12.50;99.90
3528;DHT22;1778;47.966;7.854;2023-02-17T01:25:55;12.60;99.90
3528;DHT22;1778;47.966;7.854;2023-02-17T01:26:57;12.50;99.90
3528;DHT22;1778;47.966;7.854;2023-02-17T01:28:01;12.50;99.90
3528;DHT22;1778;47.966;7.854;2023-02-17T01:29:04;12.60;99.90
3528;DHT22;1778;47.966;7.854;2023-02-17T01:30:06;12.50;99.90
3528;DHT22;1778;47.966;7.854;2023-02-17T01:31:08;12.50;99.90
3528;DHT22;1778;47.966;7.854;2023-02-17T01:32:11;12.50;99.90
3528;DHT22;1778;47.966;7.854;2023-02-17T01:33:13;12.60;99.90
3528;DHT22;1778;47.966;7.854;2023-02-17T01:34:15;12.60;99.90
3528;DHT22;1778;47.966;7.854;2023-02-17T01:35:17;12.60;99.90
3528;DHT22;1778;47.966;7.854;2023-02-17T01:36:19;12.60;99.90
3528;DHT22;1778;47.966;7.854;2023-02-17T01:37:21;12.70;99.90
3528;DHT22;1778;47.966;7.854;2023-02-17T01:38:22;12.70;99.90
3528;DHT22;1778;47.966;7.854;2023-02-17T01:39:24;12.60;99.90
3528;DHT22;1778;47.966;7.854;2023-02-17T01:40:25;12.70;99.90
3528;DHT22;1778;47.966;7.854;2023-02-17T01:41:27;12.60;99.90
3528;DHT22;1778;47.966;7.854;2023-02-17T01:42:29;12.60;99.90
3528;DHT22;1778;47.966;7.854;2023-02-17T01:43:31;12.60;99.90
3528;DHT22;1778;47.966;7.854;2023-02-17T01:44:32;12.60;99.90
3528;DHT22;1778;47.966;7.854;2023-02-17T01:45:37;12.60;99.90
3528;DHT22;1778;47.966;7.854;2023-02-17T01:46:46;12.60;99.90
3528;DHT22;1778;47.966;7.854;2023-02-17T01:48:11;12.60;99.90
3528;DHT22;1778;47.966;7.854;2023-02-17T01:49:20;12.50;99.90
3528;DHT22;1778;47.966;7.854;2023-02-17T01:50:29;12.50;99.90
3528;DHT22;1778;47.966;7.854;2023-02-17T01:51:34;12.50;99.90
3528;DHT22;1778;47.966;7.854;2023-02-17T01:52:36;12.50;99.90
3528;DHT22;1778;47.966;7.854;2023-02-17T01:54:05;12.50;99.90
3528;DHT22;1778;47.966;7.854;2023-02-17T01:55:11;12.50;99.90
3528;DHT22;1778;47.966;7.854;2023-02-17T01:56:15;12.40;99.90
3528;DHT22;1778;47.966;7.854;2023-02-17T01:57:21;12.50;99.90
3528;DHT22;1778;47.966;7.854;2023-02-17T01:58:24;12.50;99.90
3528;DHT22;1778;47.966;7.854;2023-02-17T01:59:28;12.50;99.90
3528;DHT22;1778;47.966;7.854;2023-02-17T02:00:31;12.40;99.90
3528;DHT22;1778;47.966;7.854;2023-02-17T02:01:33;12.40;99.90
3528;DHT22;1778;47.966;7.854;2023-02-17T02:02:35;12.40;99.90
3528;DHT22;1778;47.966;7.854;2023-02-17T02:03:39;12.40;99.90
3528;DHT22;1778;47.966;7.854;2023-02-17T02:04:43;12.40;99.90
3528;DHT22;1778;47.966;7.854;2023-02-17T02:05:45;12.30;99.90
3528;DHT22;1778;47.966;7.854;2023-02-17T02:06:47;12.30;99.90
3528;DHT22;1778;47.966;7.854;2023-02-17T02:07:49;12.30;99.90
3528;DHT22;1778;47.966;7.854;2023-02-17T02:09:05;12.30;99.90
3528;DHT22;1778;47.966;7.854;2023-02-17T02:10:08;12.30;99.90
3528;DHT22;1778;47.966;7.854;2023-02-17T02:11:10;12.30;99.90
3528;DHT22;1778;47.966;7.854;2023-02-17T02:12:33;12.30;99.90
3528;DHT22;1778;47.966;7.854;2023-02-17T02:13:35;12.30;99.90
3528;DHT22;1778;47.966;7.854;2023-02-17T02:14:37;12.30;99.90
3528;DHT22;1778;47.966;7.854;2023-02-17T02:23:30;12.30;99.90
3528;DHT22;1778;47.966;7.854;2023-02-17T02:25:00;12.30;99.90
3528;DHT22;1778;47.966;7.854;2023-02-17T02:27:47;12.30;99.90
3528;DHT22;1778;47.966;7.854;2023-02-17T02:32:49;12.20;99.90
3528;DHT22;1778;47.966;7.854;2023-02-17T02:33:59;12.20;99.90
3528;DHT22;1778;47.966;7.854;2023-02-17T02:35:24;12.20;99.90
3528;DHT22;1778;47.966;7.854;2023-02-17T02:36:31;12.20;99.90
3528;DHT22;1778;47.966;7.854;2023-02-17T02:37:49;12.30;99.90
3528;DHT22;1778;47.966;7.854;2023-02-17T02:40:07;12.30;99.90
3528;DHT22;1778;47.966;7.854;2023-02-17T02:41:16;12.30;99.90
3528;DHT22;1778;47.966;7.854;2023-02-17T02:42:22;12.30;99.90
3528;DHT22;1778;47.966;7.854;2023-02-17T02:43:25;12.20;99.90
3528;DHT22;1778;47.966;7.854;2023-02-17T02:44:26;12.20;99.90
3528;DHT22;1778;47.966;7.854;2023-02-17T02:45:28;12.30;99.90
3528;DHT22;1778;47.966;7.854;2023-02-17T02:46:30;12.30;99.90
3528;DHT22;1778;47.966;7.854;2023-02-17T02:48:43;12.30;99.90
3528;DHT22;1778;47.966;7.854;2023-02-17T02:49:45;12.30;99.90
3528;DHT22;1778;47.966;7.854;2023-02-17T02:52:23;12.30;99.90
3528;DHT22;1778;47.966;7.854;2023-02-17T02:55:02;12.30;99.90
3528;DHT22;1778;47.966;7.854;2023-02-17T02:57:49;12.20;99.90
3528;DHT22;1778;47.966;7.854;2023-02-17T03:01:33;12.10;99.90
3528;DHT22;1778;47.966;7.854;2023-02-17T03:02:58;12.20;99.90
3528;DHT22;1778;47.966;7.854;2023-02-17T03:04:11;12.20;99.90
3528;DHT22;1778;47.966;7.854;2023-02-17T03:05:25;12.20;99.90
3528;DHT22;1778;47.966;7.854;2023-02-17T03:07:34;12.20;99.90
3528;DHT22;1778;47.966;7.854;2023-02-17T03:08:39;12.20;99.90
3528;DHT22;1778;47.966;7.854;2023-02-17T03:09:42;12.20;99.90
3528;DHT22;1778;47.966;7.854;2023-02-17T03:10:48;12.10;99.90
3528;DHT22;1778;47.966;7.854;2023-02-17T03:11:50;12.10;99.90
3528;DHT22;1778;47.966;7.854;2023-02-17T03:12:52;12.10;99.90
3528;DHT22;1778;47.966;7.854;2023-02-17T03:13:54;12.10;99.90
3528;DHT22;1778;47.966;7.854;2023-02-17T03:15:04;12.20;99.90
3528;DHT22;1778;47.966;7.854;2023-02-17T03:16:06;12.20;99.90
3528;DHT22;1778;47.966;7.854;2023-02-17T03:17:09;12.10;99.90
3528;DHT22;1778;47.966;7.854;2023-02-17T03:18:11;12.10;99.90
3528;DHT22;1778;47.966;7.854;2023-02-17T03:19:14;12.10;99.90
3528;DHT22;1778;47.966;7.854;2023-02-17T03:20:17;12.10;99.90
3528;DHT22;1778;47.966;7.854;2023-02-17T03:21:20;12.10;99.90
3528;DHT22;1778;47.966;7.854;2023-02-17T03:22:26;12.10;99.90
3528;DHT22;1778;47.966;7.854;2023-02-17T03:23:30;12.10;99.90
3528;DHT22;1778;47.966;7.854;2023-02-17T03:24:33;12.10;99.90
3528;DHT22;1778;47.966;7.854;2023-02-17T03:25:35;12.10;99.90
3528;DHT22;1778;47.966;7.854;2023-02-17T03:26:37;12.10;99.90
3528;DHT22;1778;47.966;7.854;2023-02-17T03:27:38;12.10;99.90
3528;DHT22;1778;47.966;7.854;2023-02-17T03:28:39;12.10;99.90
3528;DHT22;1778;47.966;7.854;2023-02-17T03:29:41;12.10;99.90
3528;DHT22;1778;47.966;7.854;2023-02-17T03:30:44;12.10;99.90
3528;DHT22;1778;47.966;7.854;2023-02-17T03:31:46;12.10;99.90
3528;DHT22;1778;47.966;7.854;2023-02-17T03:32:47;12.20;99.90
3528;DHT22;1778;47.966;7.854;2023-02-17T03:33:49;12.20;99.90
3528;DHT22;1778;47.966;7.854;2023-02-17T03:34:51;12.20;99.90
3528;DHT22;1778;47.966;7.854;2023-02-17T03:35:53;12.20;99.90
3528;DHT22;1778;47.966;7.854;2023-02-17T03:36:54;12.20;99.90
3528;DHT22;1778;47.966;7.854;2023-02-17T03:37:56;12.20;99.90
3528;DHT22;1778;47.966;7.854;2023-02-17T03:38:58;12.20;99.90
3528;DHT22;1778;47.966;7.854;2023-02-17T03:40:00;12.20;99.90
3528;DHT22;1778;47.966;7.854;2023-02-17T03:41:01;12.20;99.90
3528;DHT22;1778;47.966;7.854;2023-02-17T03:42:02;12.20;99.90
3528;DHT22;1778;47.966;7.854;2023-02-17T03:43:04;12.20;99.90
3528;DHT22;1778;47.966;7.854;2023-02-17T03:44:05;12.30;99.90
3528;DHT22;1778;47.966;7.854;2023-02-17T03:45:08;12.20;99.90
3528;DHT22;1778;47.966;7.854;2023-02-17T03:46:37;12.20;99.90
3528;DHT22;1778;47.966;7.854;2023-02-17T03:47:39;12.20;99.90
3528;DHT22;1778;47.966;7.854;2023-02-17T03:48:41;12.10;99.90
3528;DHT22;1778;47.966;7.854;2023-02-17T03:49:42;12.10;99.90
3528;DHT22;1778;47.966;7.854;2023-02-17T03:50:43;12.10;99.90
3528;DHT22;1778;47.966;7.854;2023-02-17T03:51:45;12.10;99.90
3528;DHT22;1778;47.966;7.854;2023-02-17T03:52:46;12.10;99.90
3528;DHT22;1778;47.966;7.854;2023-02-17T03:53:49;12.10;99.90
3528;DHT22;1778;47.966;7.854;2023-02-17T03:54:50;12.10;99.90
3528;DHT22;1778;47.966;7.854;2023-02-17T03:55:53;12.10;99.90
3528;DHT22;1778;47.966;7.854;2023-02-17T03:56:55;12.20;99.90
3528;DHT22;1778;47.966;7.854;2023-02-17T03:57:56;12.20;99.90
3528;DHT22;1778;47.966;7.854;2023-02-17T03:58:58;12.20;99.90
3528;DHT22;1778;47.966;7.854;2023-02-17T03:59:59;12.20;99.90
3528;DHT22;1778;47.966;7.854;2023-02-17T04:01:01;12.30;99.90
3528;DHT22;1778;47.966;7.854;2023-02-17T04:02:03;12.30;99.90
3528;DHT22;1778;47.966;7.854;2023-02-17T04:03:04;12.30;99.90
3528;DHT22;1778;47.966;7.854;2023-02-17T04:04:06;12.30;99.90
3528;DHT22;1778;47.966;7.854;2023-02-17T04:05:07;12.30;99.90
3528;DHT22;1778;47.966;7.854;2023-02-17T04:06:09;12.20;99.90
3528;DHT22;1778;47.966;7.854;2023-02-17T04:07:11;12.20;99.90
3528;DHT22;1778;47.966;7.854;2023-02-17T04:08:12;12.20;99.90
3528;DHT22;1778;47.966;7.854;2023-02-17T04:09:14;12.20;99.90
3528;DHT22;1778;47.966;7.854;2023-02-17T04:10:15;12.20;99.90
3528;DHT22;1778;47.966;7.854;2023-02-17T04:11:17;12.20;99.90
3528;DHT22;1778;47.966;7.854;2023-02-17T04:12:19;12.20;99.90
3528;DHT22;1778;47.966;7.854;2023-02-17T04:13:21;12.20;99.90
3528;DHT22;1778;47.966;7.854;2023-02-17T04:14:23;12.30;99.90
3528;DHT22;1778;47.966;7.854;2023-02-17T04:15:24;12.30;99.90
3528;DHT22;1778;47.966;7.854;2023-02-17T04:16:26;12.30;99.90
3528;DHT22;1778;47.966;7.854;2023-02-17T04:17:27;12.30;99.90
3528;DHT22;1778;47.966;7.854;2023-02-17T04:18:29;12.30;99.90
3528;DHT22;1778;47.966;7.854;2023-02-17T04:19:31;12.30;99.90
3528;DHT22;1778;47.966;7.854;2023-02-17T04:20:33;12.30;99.90
3528;DHT22;1778;47.966;7.854;2023-02-17T04:21:35;12.30;99.90
3528;DHT22;1778;47.966;7.854;2023-02-17T04:22:36;12.30;99.90
3528;DHT22;1778;47.966;7.854;2023-02-17T04:23:38;12.30;99.90
3528;DHT22;1778;47.966;7.854;2023-02-17T04:24:40;12.40;99.90
3528;DHT22;1778;47.966;7.854;2023-02-17T04:25:41;12.40;99.90
3528;DHT22;1778;47.966;7.854;2023-02-17T04:26:44;12.30;99.90
3528;DHT22;1778;47.966;7.854;2023-02-17T04:27:45;12.30;99.90
3528;DHT22;1778;47.966;7.854;2023-02-17T04:28:47;12.30;99.90
3528;DHT22;1778;47.966;7.854;2023-02-17T04:29:50;12.30;99.90
3528;DHT22;1778;47.966;7.854;2023-02-17T04:30:51;12.30;99.90
3528;DHT22;1778;47.966;7.854;2023-02-17T04:31:53;12.30;99.90
3528;DHT22;1778;47.966;7.854;2023-02-17T04:32:55;12.30;99.90
3528;DHT22;1778;47.966;7.854;2023-02-17T04:33:57;12.30;99.90
3528;DHT22;1778;47.966;7.854;2023-02-17T04:34:58;12.30;99.90
3528;DHT22;1778;47.966;7.854;2023-02-17T04:36:00;12.30;99.90
3528;DHT22;1778;47.966;7.854;2023-02-17T04:37:02;12.30;99.90
3528;DHT22;1778;47.966;7.854;2023-02-17T04:38:05;12.30;99.90
3528;DHT22;1778;47.966;7.854;2023-02-17T04:39:06;12.20;99.90
3528;DHT22;1778;47.966;7.854;2023-02-17T04:40:08;12.20;99.90
3528;DHT22;1778;47.966;7.854;2023-02-17T04:41:10;12.20;99.90
3528;DHT22;1778;47.966;7.854;2023-02-17T04:42:12;12.20;99.90
3528;DHT22;1778;47.966;7.854;2023-02-17T04:43:13;12.20;99.90
3528;DHT22;1778;47.966;7.854;2023-02-17T04:44:15;12.20;99.90
3528;DHT22;1778;47.966;7.854;2023-02-17T04:45:17;12.20;99.90
3528;DHT22;1778;47.966;7.854;2023-02-17T04:46:18;12.10;99.90
3528;DHT22;1778;47.966;7.854;2023-02-17T04:47:20;12.10;99.90
3528;DHT22;1778;47.966;7.854;2023-02-17T04:48:23;12.10;99.90
3528;DHT22;1778;47.966;7.854;2023-02-17T04:49:25;12.20;99.90
3528;DHT22;1778;47.966;7.854;2023-02-17T04:50:26;12.20;99.90
3528;DHT22;1778;47.966;7.854;2023-02-17T04:51:28;12.20;99.90
3528;DHT22;1778;47.966;7.854;2023-02-17T04:52:29;12.20;99.90
3528;DHT22;1778;47.966;7.854;2023-02-17T04:53:31;12.20;99.90
3528;DHT22;1778;47.966;7.854;2023-02-17T04:54:32;12.20;99.90
3528;DHT22;1778;47.966;7.854;2023-02-17T04:55:34;12.10;99.90
3528;DHT22;1778;47.966;7.854;2023-02-17T04:56:36;12.10;99.90
3528;DHT22;1778;47.966;7.854;2023-02-17T04:57:37;12.10;99.90
3528;DHT22;1778;47.966;7.854;2023-02-17T04:58:39;12.20;99.90
3528;DHT22;1778;47.966;7.854;2023-02-17T04:59:40;12.10;99.90
3528;DHT22;1778;47.966;7.854;2023-02-17T05:00:42;12.20;99.90
3528;DHT22;1778;47.966;7.854;2023-02-17T05:01:44;12.10;99.90
3528;DHT22;1778;47.966;7.854;2023-02-17T05:02:45;12.10;99.90
3528;DHT22;1778;47.966;7.854;2023-02-17T05:03:47;12.20;99.90
3528;DHT22;1778;47.966;7.854;2023-02-17T05:04:48;12.10;99.90
3528;DHT22;1778;47.966;7.854;2023-02-17T05:05:50;12.10;99.90
3528;DHT22;1778;47.966;7.854;2023-02-17T05:06:51;12.10;99.90
3528;DHT22;1778;47.966;7.854;2023-02-17T05:07:54;12.10;99.90
3528;DHT22;1778;47.966;7.854;2023-02-17T05:08:55;12.00;99.90
3528;DHT22;1778;47.966;7.854;2023-02-17T05:09:57;12.00;99.90
3528;DHT22;1778;47.966;7.854;2023-02-17T05:10:59;12.00;99.90
3528;DHT22;1778;47.966;7.854;2023-02-17T05:12:00;12.00;99.90
3528;DHT22;1778;47.966;7.854;2023-02-17T05:13:03;12.00;99.90
3528;DHT22;1778;47.966;7.854;2023-02-17T05:14:05;12.00;99.90
3528;DHT22;1778;47.966;7.854;2023-02-17T05:15:07;12.00;99.90
3528;DHT22;1778;47.966;7.854;2023-02-17T05:16:09;12.00;99.90
3528;DHT22;1778;47.966;7.854;2023-02-17T05:17:11;12.00;99.90
3528;DHT22;1778;47.966;7.854;2023-02-17T05:18:13;12.00;99.90
3528;DHT22;1778;47.966;7.854;2023-02-17T05:19:14;12.00;99.90
3528;DHT22;1778;47.966;7.854;2023-02-17T05:20:16;12.00;99.90
3528;DHT22;1778;47.966;7.854;2023-02-17T05:21:17;12.00;99.90
3528;DHT22;1778;47.966;7.854;2023-02-17T05:22:19;12.00;99.90
3528;DHT22;1778;47.966;7.854;2023-02-17T05:23:21;12.00;99.90
3528;DHT22;1778;47.966;7.854;2023-02-17T05:24:22;11.90;99.90
3528;DHT22;1778;47.966;7.854;2023-02-17T05:25:24;12.00;99.90
3528;DHT22;1778;47.966;7.854;2023-02-17T05:26:25;12.00;99.90
3528;DHT22;1778;47.966;7.854;2023-02-17T05:27:27;12.00;99.90
3528;DHT22;1778;47.966;7.854;2023-02-17T05:28:29;12.00;99.90
3528;DHT22;1778;47.966;7.854;2023-02-17T05:29:30;12.00;99.90
3528;DHT22;1778;47.966;7.854;2023-02-17T05:30:32;12.00;99.90
3528;DHT22;1778;47.966;7.854;2023-02-17T05:31:33;12.00;99.90
3528;DHT22;1778;47.966;7.854;2023-02-17T05:32:35;12.00;99.90
3528;DHT22;1778;47.966;7.854;2023-02-17T05:33:37;12.00;99.90
3528;DHT22;1778;47.966;7.854;2023-02-17T05:34:39;11.90;99.90
3528;DHT22;1778;47.966;7.854;2023-02-17T05:35:40;12.00;99.90
3528;DHT22;1778;47.966;7.854;2023-02-17T05:36:42;12.00;99.90
3528;DHT22;1778;47.966;7.854;2023-02-17T05:37:43;12.00;99.90
3528;DHT22;1778;47.966;7.854;2023-02-17T05:38:45;12.00;99.90
3528;DHT22;1778;47.966;7.854;2023-02-17T05:39:49;12.10;99.90
3528;DHT22;1778;47.966;7.854;2023-02-17T05:40:51;12.10;99.90
3528;DHT22;1778;47.966;7.854;2023-02-17T05:41:52;12.00;99.90
3528;DHT22;1778;47.966;7.854;2023-02-17T05:42:56;11.90;99.90
3528;DHT22;1778;47.966;7.854;2023-02-17T05:43:58;11.90;99.90
3528;DHT22;1778;47.966;7.854;2023-02-17T05:44:59;11.90;99.90
3528;DHT22;1778;47.966;7.854;2023-02-17T05:46:02;11.90;99.90
3528;DHT22;1778;47.966;7.854;2023-02-17T05:47:04;11.90;99.90
3528;DHT22;1778;47.966;7.854;2023-02-17T05:48:06;11.90;99.90
3528;DHT22;1778;47.966;7.854;2023-02-17T05:49:07;11.90;99.90
3528;DHT22;1778;47.966;7.854;2023-02-17T05:50:09;11.90;99.90
3528;DHT22;1778;47.966;7.854;2023-02-17T05:51:11;11.90;99.90
3528;DHT22;1778;47.966;7.854;2023-02-17T05:52:18;11.90;99.90
3528;DHT22;1778;47.966;7.854;2023-02-17T05:53:19;11.80;99.90
3528;DHT22;1778;47.966;7.854;2023-02-17T05:54:21;11.90;99.90
3528;DHT22;1778;47.966;7.854;2023-02-17T05:55:23;11.90;99.90
3528;DHT22;1778;47.966;7.854;2023-02-17T05:56:24;11.90;99.90
3528;DHT22;1778;47.966;7.854;2023-02-17T05:57:26;11.90;99.90
3528;DHT22;1778;47.966;7.854;2023-02-17T05:58:27;11.80;99.90
3528;DHT22;1778;47.966;7.854;2023-02-17T05:59:30;11.80;99.90
3528;DHT22;1778;47.966;7.854;2023-02-17T06:00:31;11.80;99.90
3528;DHT22;1778;47.966;7.854;2023-02-17T06:01:33;11.80;99.90
3528;DHT22;1778;47.966;7.854;2023-02-17T06:02:37;11.80;99.90
3528;DHT22;1778;47.966;7.854;2023-02-17T06:03:39;11.80;99.90
3528;DHT22;1778;47.966;7.854;2023-02-17T06:04:40;11.80;99.90
3528;DHT22;1778;47.966;7.854;2023-02-17T06:05:44;11.90;99.90
3528;DHT22;1778;47.966;7.854;2023-02-17T06:06:45;11.90;99.90
3528;DHT22;1778;47.966;7.854;2023-02-17T06:07:47;11.80;99.90
3528;DHT22;1778;47.966;7.854;2023-02-17T06:08:48;11.80;99.90
3528;DHT22;1778;47.966;7.854;2023-02-17T06:09:49;11.80;99.90
3528;DHT22;1778;47.966;7.854;2023-02-17T06:10:54;11.80;99.90
3528;DHT22;1778;47.966;7.854;2023-02-17T06:11:55;11.80;99.90
3528;DHT22;1778;47.966;7.854;2023-02-17T06:12:57;11.90;99.90
3528;DHT22;1778;47.966;7.854;2023-02-17T06:13:59;11.80;99.90
3528;DHT22;1778;47.966;7.854;2023-02-17T06:15:01;11.80;99.90
3528;DHT22;1778;47.966;7.854;2023-02-17T06:16:04;11.80;99.90
3528;DHT22;1778;47.966;7.854;2023-02-17T06:17:07;11.80;99.90
3528;DHT22;1778;47.966;7.854;2023-02-17T06:18:08;11.80;99.90
3528;DHT22;1778;47.966;7.854;2023-02-17T06:19:10;11.80;99.90
3528;DHT22;1778;47.966;7.854;2023-02-17T06:20:11;11.80;99.90
3528;DHT22;1778;47.966;7.854;2023-02-17T06:21:13;11.80;99.90
3528;DHT22;1778;47.966;7.854;2023-02-17T06:22:15;11.80;99.90
3528;DHT22;1778;47.966;7.854;2023-02-17T06:23:18;11.80;99.90
3528;DHT22;1778;47.966;7.854;2023-02-17T06:24:20;11.80;99.90
3528;DHT22;1778;47.966;7.854;2023-02-17T06:25:21;11.80;99.90
3528;DHT22;1778;47.966;7.854;2023-02-17T06:26:23;11.80;99.90
3528;DHT22;1778;47.966;7.854;2023-02-17T06:27:24;11.80;99.90
3528;DHT22;1778;47.966;7.854;2023-02-17T06:28:26;11.80;99.90
3528;DHT22;1778;47.966;7.854;2023-02-17T06:29:28;11.80;99.90
3528;DHT22;1778;47.966;7.854;2023-02-17T06:30:29;11.80;99.90
3528;DHT22;1778;47.966;7.854;2023-02-17T06:31:31;11.80;99.90
3528;DHT22;1778;47.966;7.854;2023-02-17T06:32:33;11.80;99.90
3528;DHT22;1778;47.966;7.854;2023-02-17T06:33:35;11.80;99.90
3528;DHT22;1778;47.966;7.854;2023-02-17T06:34:36;11.70;99.90
3528;DHT22;1778;47.966;7.854;2023-02-17T06:35:38;11.70;99.90
3528;DHT22;1778;47.966;7.854;2023-02-17T06:36:39;11.70;99.90
3528;DHT22;1778;47.966;7.854;2023-02-17T06:37:41;11.70;99.90
3528;DHT22;1778;47.966;7.854;2023-02-17T06:38:43;11.70;99.90
3528;DHT22;1778;47.966;7.854;2023-02-17T06:39:44;11.70;99.90
3528;DHT22;1778;47.966;7.854;2023-02-17T06:40:46;11.70;99.90
3528;DHT22;1778;47.966;7.854;2023-02-17T06:41:47;11.70;99.90
3528;DHT22;1778;47.966;7.854;2023-02-17T06:42:49;11.70;99.90
3528;DHT22;1778;47.966;7.854;2023-02-17T06:43:51;11.80;99.90
3528;DHT22;1778;47.966;7.854;2023-02-17T06:44:52;11.80;99.90
3528;DHT22;1778;47.966;7.854;2023-02-17T06:45:53;11.80;99.90
3528;DHT22;1778;47.966;7.854;2023-02-17T06:46:55;11.70;99.90
3528;DHT22;1778;47.966;7.854;2023-02-17T06:47:57;11.80;99.90
3528;DHT22;1778;47.966;7.854;2023-02-17T06:48:58;11.70;99.90
3528;DHT22;1778;47.966;7.854;2023-02-17T06:50:01;11.70;99.90
3528;DHT22;1778;47.966;7.854;2023-02-17T06:51:03;11.60;99.90
3528;DHT22;1778;47.966;7.854;2023-02-17T06:52:05;11.60;99.90
3528;DHT22;1778;47.966;7.854;2023-02-17T06:53:06;11.60;99.90
3528;DHT22;1778;47.966;7.854;2023-02-17T06:54:08;11.60;99.90
3528;DHT22;1778;47.966;7.854;2023-02-17T06:55:09;11.60;99.90
3528;DHT22;1778;47.966;7.854;2023-02-17T06:56:11;11.60;99.90
3528;DHT22;1778;47.966;7.854;2023-02-17T06:57:13;11.60;99.90
3528;DHT22;1778;47.966;7.854;2023-02-17T06:58:14;11.60;99.90
3528;DHT22;1778;47.966;7.854;2023-02-17T06:59:16;11.50;99.90
3528;DHT22;1778;47.966;7.854;2023-02-17T07:00:18;11.60;99.90
3528;DHT22;1778;47.966;7.854;2023-02-17T07:01:22;11.60;99.90
3528;DHT22;1778;47.966;7.854;2023-02-17T07:02:24;11.60;99.90
3528;DHT22;1778;47.966;7.854;2023-02-17T07:03:25;11.50;99.90
3528;DHT22;1778;47.966;7.854;2023-02-17T07:04:27;11.50;99.90
3528;DHT22;1778;47.966;7.854;2023-02-17T07:05:28;11.60;99.90
3528;DHT22;1778;47.966;7.854;2023-02-17T07:06:30;11.60;99.90
3528;DHT22;1778;47.966;7.854;2023-02-17T07:07:31;11.60;99.90
3528;DHT22;1778;47.966;7.854;2023-02-17T07:08:33;11.60;99.90
3528;DHT22;1778;47.966;7.854;2023-02-17T07:09:35;11.50;99.90
3528;DHT22;1778;47.966;7.854;2023-02-17T07:10:36;11.60;99.90
3528;DHT22;1778;47.966;7.854;2023-02-17T07:11:38;11.50;99.90
3528;DHT22;1778;47.966;7.854;2023-02-17T07:12:40;11.50;99.90
3528;DHT22;1778;47.966;7.854;2023-02-17T07:13:42;11.50;99.90
3528;DHT22;1778;47.966;7.854;2023-02-17T07:14:44;11.60;99.90